Latest Coastal Weather Observations for Gabo Island (VIC)

IDN60701

Issued at 3:25 am EDT Thursday 27 November 2014 (issued every 10 minutes, with the page automatically refreshed every 10 minutes)

About coastal observations | Map of coastal stations | Coastal observations for NSW | Marine services | Other Formats
Station Details ID: 084016 Name: GABO ISLAND LIGHTHOUSE Lat: -37.57 Lon: 149.92 Height: 15.2 m
Data from the previous 72 hours. | See also: Recent months at Gabo Island (VIC)
Date/Time
EDT
Temp

°C
Wind Pressure Rain
since 9am
mm
Weather Cloud Vis
km
Sea
Height
m
Swell
Dir
 
Speed
knots
Gust
knots
hPa Trend Height
m
Period
s
Dir
27/03:00am 14.7 WSW 19 23 1021.6 - 0.0 Fine Mostly cloudy 30 2 1.0 - SW
27/02:30am 15.1 SW 21 27 1021.6 - 0.0 - - - - - - -
27/02:00am 14.9 SW 23 29 1021.7 - 0.0 - - - - - - -
27/01:30am 15.0 SW 23 28 1021.8 - 0.0 - - - - - - -
27/01:00am 15.0 SW 25 30 1022.0 - 0.0 - - - - - - -
27/12:30am 15.4 WSW 18 23 1022.2 - 0.0 - - - - - - -
27/12:00am 15.3 WSW 20 25 1022.1 - 0.0 - - - - - - -
 
Date/Time
EDT
Temp

°C
Wind Pressure Rain
since 9am
mm
Weather Cloud Vis
km
Sea
Height
m
Swell
Dir
 
Speed
knots
Gust
knots
hPa Trend Height
m
Period
s
Dir
26/11:30pm 15.6 WSW 17 20 1022.1 - 0.0 - - - - - - -
26/11:00pm 15.5 WSW 17 23 1022.1 - 0.0 - - - - - - -
26/10:30pm 15.5 WSW 17 21 1022.0 - 0.0 - - - - - - -
26/10:00pm 15.8 WSW 17 22 1021.8 - 0.0 - - - - - - -
26/09:30pm 15.8 WSW 16 21 1021.6 - 0.0 - - - - - - -
26/09:00pm 15.8 WSW 17 23 1021.2 - 0.0 Fine Mostly cloudy 30 1 1.0 - SW
26/08:30pm 16.1 SW 20 26 1020.8 - 0.0 - - - - - - -
26/08:00pm 15.9 SW 21 25 1020.6 - 0.0 - - - - - - -
26/07:30pm 16.2 SW 23 28 1020.4 - 0.0 - - - - - - -
26/07:00pm 16.6 SW 23 27 1019.8 - 0.0 - - - - - - -
26/06:30pm 16.8 SW 22 27 1019.4 - 0.0 - - - - - - -
26/06:00pm 16.7 SW 23 26 1019.1 - 0.0 - - - - - - -
26/05:30pm 17.0 SW 22 25 1019.1 - 0.0 - - - - - - -
26/05:00pm 16.9 SW 20 23 1019.2 - 0.0 - - - - - - -
26/04:30pm 17.1 SSW 24 28 1019.1 - 0.0 - - - - - - -
26/04:00pm 17.0 SW 26 30 1018.9 - 0.0 - - - - - - -
26/03:30pm 17.0 SSW 27 31 1018.8 - 0.0 - - - - - - -
26/03:00pm 16.8 SSW 27 31 1018.7 - 0.0 Fine Mostly cloudy 30 2 1.0 - SW
26/02:30pm 16.9 SSW 27 31 1018.8 - 0.0 - - - - - - -
26/02:00pm 16.7 SSW 26 32 1018.8 - 0.0 - - - - - - -
26/01:30pm 16.8 SSW 28 32 1018.7 - 0.0 - - - - - - -
26/01:00pm 16.6 SSW 27 31 1018.8 - 0.0 - - - - - - -
26/12:30pm 16.5 SSW 24 29 1019.0 - 0.0 - - - - - - -
26/12:00pm 16.5 SSW 23 28 1019.1 - 0.0 - - - - - - -
26/11:30am 16.4 SSW 21 24 1019.2 - 0.0 - - - - - - -
26/11:00am 16.5 SSW 19 23 1019.4 - 0.0 - - - - - - -
26/10:30am 16.5 SW 18 22 1019.4 - 0.0 - - - - - - -
26/10:00am 16.4 SW 13 16 1019.6 - 0.0 - - - - - - -
26/09:30am 16.7 WSW 8 9 1019.9 - 0.0 - - - - - - -
26/09:00am 16.2 WSW 9 11 1020.0 - 0.0 Fine Mostly cloudy 30 1 1.0 - SW
26/08:30am 15.8 W 9 11 1020.0 - 0.0 - - - - - - -
26/08:00am 15.5 WSW 13 16 1019.8 - 0.0 - - - - - - -
26/07:30am 15.6 W 14 18 1019.4 - 0.0 - - - - - - -
26/07:00am 14.8 W 12 15 1019.3 - 0.0 - - - - - - -
26/06:30am 14.2 W 10 13 1019.4 - 0.0 - - - - - - -
26/06:00am 13.9 W 10 14 1019.0 - 0.0 - - - - - - -
26/05:30am 13.9 W 11 14 1019.0 - 0.0 - - - - - - -
26/05:00am 14.3 W 12 15 1018.9 - 0.0 - - - - - - -
26/04:30am 14.3 W 14 16 1018.6 - 0.0 - - - - - - -
26/04:00am 14.3 W 14 17 1018.6 - 0.0 - - - - - - -
26/03:30am 14.3 W 14 18 1018.6 - 0.0 - - - - - - -
26/03:00am 15.8 W 16 20 1018.8 - 0.0 Fine Mostly clear 30 2 1.0 - SW
26/02:30am 14.7 W 15 19 1019.0 - 0.0 - - - - - - -
26/02:00am 14.8 W 14 18 1019.6 - 0.0 - - - - - - -
26/01:30am 14.7 W 14 18 1019.7 - 0.0 - - - - - - -
26/01:00am 14.9 W 14 16 1020.0 - 0.0 - - - - - - -
26/12:30am 14.9 W 12 15 1020.2 - 0.0 - - - - - - -
26/12:00am 15.2 W 13 17 1020.3 - 0.0 - - - - - - -
 
Date/Time
EDT
Temp

°C
Wind Pressure Rain
since 9am
mm
Weather Cloud Vis
km
Sea
Height
m
Swell
Dir
 
Speed
knots
Gust
knots
hPa Trend Height
m
Period
s
Dir
25/11:30pm 15.6 W 13 17 1020.5 - 0.0 - - - - - - -
25/11:00pm 15.7 W 13 17 1020.4 - 0.0 - - - - - - -
25/10:30pm 15.8 W 13 16 1020.4 - 0.0 - - - - - - -
25/10:00pm 15.8 W 13 16 1020.2 - 0.0 - - - - - - -
25/09:30pm 15.9 WSW 13 16 1019.9 - 0.0 - - - - - - -
25/09:00pm 16.1 WSW 13 16 1019.5 - 0.0 Fine Mostly cloudy 30 2 1.0 - SW
25/08:30pm 16.5 SW 19 22 1019.0 - 0.0 - - - - - - -
25/08:00pm 16.6 SW 20 24 1018.7 - 0.0 - - - - - - -
25/07:30pm 16.7 SW 22 27 1018.1 - 0.0 - - - - - - -
25/07:00pm 16.9 SW 23 27 1017.5 - 0.0 - - - - - - -
25/06:30pm 16.9 SW 25 29 1017.0 - 0.0 - - - - - - -
25/06:00pm 16.7 SW 26 30 1016.9 - 0.0 - - - - - - -
25/05:30pm 16.9 SW 28 33 1016.5 - 0.0 - - - - - - -
25/05:00pm 16.9 SW 29 33 1016.3 - 0.0 - - - - - - -
25/04:30pm 17.1 SW 29 34 1016.2 - 0.0 - - - - - - -
25/04:00pm 17.1 SW 32 38 1015.9 - 0.0 - - - - - - -
25/03:30pm 17.4 SW 30 35 1015.6 - 0.0 - - - - - - -
25/03:00pm 17.5 SW 32 39 1015.5 - 0.0 Fine Mostly clear 25 3 3.0 - SW
25/02:30pm 17.5 SW 31 36 1015.6 - 0.0 - - - - - - -
25/02:00pm 17.5 SW 29 34 1015.7 - 0.0 - - - - - - -
25/01:30pm 17.3 SW 29 35 1015.6 - 0.0 - - - - - - -
25/01:00pm 17.7 SW 29 37 1015.8 - 0.0 - - - - - - -
25/12:30pm 17.5 SW 25 30 1016.0 - 0.0 - - - - - - -
25/12:00pm 17.8 SW 28 36 1015.6 - 0.0 - - - - - - -
25/11:30am 17.6 SW 29 36 1015.2 - 0.0 - - - - - - -
25/11:00am 17.5 WSW 27 37 1015.1 - 0.0 - - - - - - -
25/10:36am 17.2 WSW 22 32 1015.1 - 0.0 - - - - - - -
25/10:30am 17.6 WSW 22 27 1015.1 - 0.0 - - - - - - -
25/10:00am 17.2 WSW 23 30 1014.7 - 0.0 - - - - - - -
25/09:30am 16.5 WSW 26 33 1014.3 - 0.0 - - - - - - -
25/09:00am 15.9 WSW 23 29 1014.2 - 4.4 Fine Mostly clear 30 2 1.0 - SW
25/08:30am 15.2 WSW 23 29 1014.1 - 4.4 - - - - - - -
25/08:00am 14.9 WSW 23 29 1013.8 - 4.4 - - - - - - -
25/07:30am 14.5 WSW 23 30 1013.4 - 4.4 - - - - - - -
25/07:00am 14.0 WSW 23 29 1012.9 - 4.4 - - - - - - -
25/06:30am 14.0 WSW 24 31 1012.3 - 4.4 - - - - - - -
25/06:00am 14.2 WSW 26 33 1011.1 - 4.4 - - - - - - -
25/05:30am 13.9 W 23 30 1010.8 - 4.4 - - - - - - -
25/05:00am 14.0 W 22 28 1010.3 - 4.4 - - - - - - -
25/04:30am 14.1 W 20 25 1009.9 - 4.4 - - - - - - -
25/04:00am 14.0 WSW 18 24 1009.7 - 4.4 - - - - - - -
25/03:30am 14.4 WSW 25 31 1009.1 - 4.4 - - - - - - -
25/03:00am 14.5 WSW 24 29 1009.3 - 4.4 Fine Cloudy 30 2 1.0 - SW
25/02:30am 13.6 W 25 31 1009.4 - 4.4 - - - - - - -
25/02:00am 14.1 WSW 29 36 1009.3 - 4.4 - - - - - - -
25/01:52am 14.0 WSW 33 43 1009.3 - 4.4 - - - - - - -
25/01:42am 14.6 SW 34 41 1008.8 - 4.4 - - - - - - -
25/01:31am 15.5 WSW 22 32 1009.1 - 4.4 - - - - - - -
25/01:30am 15.6 WSW 21 30 1009.1 - 4.4 - - - - - - -
25/01:00am 15.4 WSW 24 30 1008.4 - 4.4 - - - - - - -
25/12:43am 15.3 SW 31 41 1008.4 - 4.4 - - - - - - -
25/12:30am 15.9 SW 32 38 1008.1 - 4.2 - - - - - - -
25/12:00am 17.3 SW 26 41 1006.8 - 4.0 - - - - - - -
 
Date/Time
EDT
Temp

°C
Wind Pressure Rain
since 9am
mm
Weather Cloud Vis
km
Sea
Height
m
Swell
Dir
 
Speed
knots
Gust
knots
hPa Trend Height
m
Period
s
Dir
24/11:50pm 17.9 SW 22 32 1007.1 - 4.0 - - - - - - -
24/11:46pm 18.6 WSW 21 26 1007.2 - 3.8 - - - - - - -
24/11:30pm 18.6 N 7 9 1006.6 - 3.8 - - - - - - -
24/11:00pm 18.2 NW 5 8 1007.5 - 3.4 - - - - - - -
24/10:30pm 17.7 N 6 11 1007.4 - 2.4 - - - - - - -
24/10:00pm 17.7 WNW 6 8 1007.0 - 1.0 - - - - - - -
24/09:30pm 18.1 SSW 13 18 1007.3 - 0.2 - - - - - - -
24/09:00pm 19.4 CALM 0 4 1005.7 - 0.2 Fine Cloudy 30 <0.5 1.0 - NE
24/08:30pm 19.2 N 6 8 1005.6 - 0.2 - - - - - - -
24/08:00pm 19.4 NNE 8 11 1005.6 - 0.2 - - - - - - -
24/07:30pm 19.6 NNE 6 9 1006.0 - 0.2 - - - - - - -
24/07:00pm 19.8 NE 4 5 1006.4 - 0.2 - - - - - - -
24/06:30pm 19.9 NNE 4 6 1006.1 - 0.2 - - - - - - -
24/06:00pm 20.1 NNE 5 7 1006.1 - 0.2 - - - - - - -
24/05:30pm 19.4 NNE 11 15 1006.1 - 0.2 - - - - - - -
24/05:00pm 19.2 NNE 14 16 1005.8 - 0.2 - - - - - - -
24/04:30pm 19.6 NNE 18 22 1006.2 - 0.2 - - - - - - -
24/04:00pm 19.9 NNE 20 26 1006.8 - 0.2 - - - - - - -
24/03:30pm 20.2 N 16 20 1007.7 - 0.0 - - - - - - -
24/03:00pm 20.3 N 11 17 1007.9 - 0.0 Distant precip. Cloudy 10 <0.5 1.0 - NE
24/02:30pm 20.2 NNE 14 17 1007.9 - 0.0 - - - - - - -
24/02:00pm 20.8 N 12 16 1007.3 - 0.0 - - - - - - -
24/01:30pm 20.2 NE 12 16 1008.1 - 0.0 - - - - - - -
24/01:00pm 20.3 NNE 18 22 1007.9 - 0.0 - - - - - - -
24/12:30pm 20.2 NNE 22 26 1008.0 - 0.0 - - - - - - -
24/12:00pm 20.1 NNE 21 25 1008.8 - 0.0 - - - - - - -
24/11:30am 20.3 NNE 20 25 1009.4 - 0.0 - - - - - - -
24/11:00am 19.9 NE 18 21 1009.4 - 0.0 - - - - - - -
24/10:30am 19.6 NE 14 17 1009.1 - 0.0 - - - - - - -
24/10:00am 19.4 ENE 12 15 1009.0 - 0.0 - - - - - - -
24/09:30am 19.3 E 5 6 1009.2 - 0.0 - - - - - - -
24/09:00am 19.5 ESE 6 11 1009.8 - 0.0 Fine Mostly cloudy 25 <0.5 1.0 - SE
24/08:30am 19.4 SW 6 8 1010.1 - 0.0 - - - - - - -
24/08:00am 20.3 NNE 7 9 1010.2 - 0.0 - - - - - - -
24/07:30am 19.4 NNE 11 13 1010.3 - 0.0 - - - - - - -
24/07:00am 19.2 N 12 19 1010.9 - 0.0 - - - - - - -
24/06:30am 18.2 NNE 17 22 1010.9 - 0.0 - - - - - - -
24/06:00am 18.0 NNE 20 23 1011.1 - 0.0 - - - - - - -
24/05:30am 18.0 NE 20 23 1011.5 - 0.0 - - - - - - -
24/05:00am 17.3 NNE 13 15 1011.7 - 0.0 - - - - - - -
24/04:30am 17.0 NE 18 21 1012.0 - 0.0 - - - - - - -
24/04:18am 16.9 NE 15 19 1011.4 - 0.0 - - - - - - -
24/04:00am 16.5 N 6 8 1012.4 - 0.0 - - - - - - -
24/03:30am 16.7 N 7 9 1012.6 - 0.0 - - - - - - -

Other Formats:

Comma delimited format used in spreadsheet applications
http://www.bom.gov.au/fwo/IDN60701/IDN60701.94933.axf

JavaScript Object Notation format (JSON) in row-major order
http://www.bom.gov.au/fwo/IDN60701/IDN60701.94933.json